NOZ1190 ENGM-EFHK
Flight info
| Callsign | NOZ1190 |
|---|---|
| Flight time | 1h 3m |
| Altitude | 37000 |
| Route | MASEV DCT OTKIL Y368 LAKUT |
| Aircraft | B738/M-SDE2E3FGHIRWXY/LB1 |
Departure
| Time | 2026-05-07 18:47 |
|---|---|
| Airport | Oslo-Gardermoen International Airport (ENGM) |
Arrival
| Time | 2026-05-07 19:51 |
|---|---|
| Airport | Helsinki Vantaa Airport (EFHK) |
| Time | Latitude | Longitude | Altitude | Speed | Heading |
|---|---|---|---|---|---|
| 2026-05-07 18:31 | 60.19561 | 11.10162 | 690 ft | 0 kts | 285° |
| 2026-05-07 18:36 | 60.19561 | 11.10164 | 690 ft | 2 kts | 285° |
| 2026-05-07 18:36 | 60.19558 | 11.10187 | 682 ft | 2 kts | 285° |
| 2026-05-07 18:37 | 60.19555 | 11.10211 | 687 ft | 2 kts | 285° |
| 2026-05-07 18:37 | 60.19551 | 11.10241 | 683 ft | 2 kts | 285° |
| 2026-05-07 18:37 | 60.19547 | 11.10273 | 682 ft | 2 kts | 285° |
| 2026-05-07 18:37 | 60.19542 | 11.10315 | 683 ft | 3 kts | 279° |
| 2026-05-07 18:38 | 60.19541 | 11.10362 | 685 ft | 3 kts | 275° |
| 2026-05-07 18:38 | 60.19538 | 11.10394 | 684 ft | 0 kts | 284° |
| 2026-05-07 18:41 | 60.19544 | 11.10386 | 690 ft | 2 kts | 328° |
| 2026-05-07 18:41 | 60.19574 | 11.10389 | 690 ft | 8 kts | 2° |
| 2026-05-07 18:41 | 60.19644 | 11.10422 | 688 ft | 13 kts | 21° |
| 2026-05-07 18:41 | 60.19732 | 11.10487 | 690 ft | 14 kts | 17° |
| 2026-05-07 18:42 | 60.19822 | 11.10537 | 690 ft | 13 kts | 15° |
| 2026-05-07 18:42 | 60.19880 | 11.10647 | 690 ft | 13 kts | 100° |
| 2026-05-07 18:42 | 60.19857 | 11.10818 | 690 ft | 12 kts | 107° |
| 2026-05-07 18:42 | 60.19832 | 11.10983 | 687 ft | 12 kts | 107° |
| 2026-05-07 18:43 | 60.19809 | 11.11146 | 688 ft | 12 kts | 107° |
| 2026-05-07 18:43 | 60.19785 | 11.11310 | 688 ft | 12 kts | 106° |
| 2026-05-07 18:43 | 60.19749 | 11.11461 | 685 ft | 12 kts | 117° |
| 2026-05-07 18:43 | 60.19722 | 11.11615 | 682 ft | 13 kts | 105° |
| 2026-05-07 18:44 | 60.19710 | 11.11700 | 684 ft | 0 kts | 106° |
| 2026-05-07 18:45 | 60.19710 | 11.11702 | 684 ft | 1 kts | 106° |
| 2026-05-07 18:46 | 60.19705 | 11.11732 | 682 ft | 8 kts | 106° |
| 2026-05-07 18:46 | 60.19643 | 11.11892 | 688 ft | 21 kts | 150° |
| 2026-05-07 18:46 | 60.19487 | 11.11884 | 683 ft | 23 kts | 195° |
| 2026-05-07 18:46 | 60.19189 | 11.11712 | 686 ft | 78 kts | 196° |
| 2026-05-07 18:47 | 60.18439 | 11.11280 | 683 ft | 143 kts | 196° |
| 2026-05-07 18:47 | 60.17322 | 11.10653 | 901 ft | 178 kts | 194° |
| 2026-05-07 18:47 | 60.16168 | 11.10027 | 1955 ft | 165 kts | 195° |
| 2026-05-07 18:47 | 60.15032 | 11.09383 | 2537 ft | 187 kts | 196° |
| 2026-05-07 18:48 | 60.13711 | 11.09064 | 2792 ft | 213 kts | 169° |
| 2026-05-07 18:48 | 60.12333 | 11.10424 | 3143 ft | 231 kts | 141° |
| 2026-05-07 18:48 | 60.11168 | 11.12702 | 3730 ft | 238 kts | 133° |
| 2026-05-07 18:48 | 60.10024 | 11.15190 | 4210 ft | 252 kts | 133° |
| 2026-05-07 18:49 | 60.08817 | 11.17853 | 4774 ft | 264 kts | 127° |
| 2026-05-07 18:49 | 60.08162 | 11.21253 | 5674 ft | 266 kts | 92° |
| 2026-05-07 18:49 | 60.08365 | 11.24939 | 6568 ft | 269 kts | 80° |
| 2026-05-07 18:49 | 60.08682 | 11.28672 | 7335 ft | 275 kts | 80° |
| 2026-05-07 18:50 | 60.09010 | 11.32493 | 8160 ft | 280 kts | 80° |
| 2026-05-07 18:50 | 60.09335 | 11.36376 | 8947 ft | 286 kts | 80° |
| 2026-05-07 18:50 | 60.09659 | 11.40350 | 9752 ft | 291 kts | 81° |
| 2026-05-07 18:50 | 60.09982 | 11.44405 | 10454 ft | 300 kts | 81° |
| 2026-05-07 18:51 | 60.10317 | 11.48697 | 10670 ft | 325 kts | 81° |
| 2026-05-07 18:51 | 60.10674 | 11.53334 | 10979 ft | 345 kts | 81° |
| 2026-05-07 18:51 | 60.11038 | 11.58139 | 11604 ft | 353 kts | 81° |
| 2026-05-07 18:51 | 60.11405 | 11.63047 | 12340 ft | 358 kts | 81° |
| 2026-05-07 18:52 | 60.11774 | 11.68017 | 13093 ft | 363 kts | 81° |
| 2026-05-07 18:52 | 60.12146 | 11.73058 | 13819 ft | 368 kts | 81° |
| 2026-05-07 18:52 | 60.12521 | 11.78173 | 14460 ft | 374 kts | 81° |
| 2026-05-07 18:52 | 60.12899 | 11.83368 | 15114 ft | 379 kts | 81° |
| 2026-05-07 18:53 | 60.13281 | 11.88639 | 15752 ft | 384 kts | 81° |
| 2026-05-07 18:53 | 60.13666 | 11.93987 | 16378 ft | 389 kts | 81° |
| 2026-05-07 18:53 | 60.14054 | 11.99403 | 17004 ft | 395 kts | 81° |
| 2026-05-07 18:53 | 60.14444 | 12.04882 | 17613 ft | 400 kts | 81° |
| 2026-05-07 18:54 | 60.14837 | 12.10452 | 18239 ft | 405 kts | 81° |
| 2026-05-07 18:54 | 60.15233 | 12.16086 | 18775 ft | 411 kts | 81° |
| 2026-05-07 18:54 | 60.15631 | 12.21783 | 19328 ft | 415 kts | 81° |
| 2026-05-07 18:54 | 60.16031 | 12.27548 | 19881 ft | 419 kts | 81° |
| 2026-05-07 18:55 | 60.16432 | 12.33361 | 20431 ft | 422 kts | 81° |
| 2026-05-07 18:55 | 60.16836 | 12.39238 | 20934 ft | 428 kts | 80° |
| 2026-05-07 18:55 | 60.17241 | 12.45183 | 21450 ft | 432 kts | 80° |
| 2026-05-07 18:55 | 60.17647 | 12.51191 | 21982 ft | 436 kts | 80° |
| 2026-05-07 18:56 | 60.18054 | 12.57252 | 22489 ft | 440 kts | 80° |
| 2026-05-07 18:56 | 60.18464 | 12.63392 | 22973 ft | 445 kts | 80° |
| 2026-05-07 18:56 | 60.18874 | 12.69584 | 23459 ft | 449 kts | 80° |
| 2026-05-07 18:56 | 60.19284 | 12.75807 | 23899 ft | 453 kts | 80° |
| 2026-05-07 18:57 | 60.19696 | 12.82103 | 24316 ft | 456 kts | 80° |
| 2026-05-07 18:57 | 60.20107 | 12.88438 | 24720 ft | 459 kts | 80° |
| 2026-05-07 18:57 | 60.20519 | 12.94827 | 25114 ft | 463 kts | 80° |
| 2026-05-07 18:57 | 60.20931 | 13.01280 | 25506 ft | 466 kts | 80° |
| 2026-05-07 18:58 | 60.21343 | 13.07775 | 25892 ft | 470 kts | 80° |
| 2026-05-07 18:58 | 60.21754 | 13.14300 | 26273 ft | 473 kts | 80° |
| 2026-05-07 18:58 | 60.22160 | 13.20804 | 26645 ft | 476 kts | 80° |
| 2026-05-07 18:58 | 60.22437 | 13.25273 | 26892 ft | 478 kts | 80° |
| 2026-05-07 18:59 | 60.22980 | 13.34110 | 27371 ft | 482 kts | 80° |
| 2026-05-07 18:59 | 60.23389 | 13.40824 | 27733 ft | 485 kts | 80° |
| 2026-05-07 18:59 | 60.23797 | 13.47589 | 28067 ft | 488 kts | 80° |
| 2026-05-07 18:59 | 60.24205 | 13.54401 | 28406 ft | 492 kts | 80° |
| 2026-05-07 19:00 | 60.24479 | 13.59020 | 28629 ft | 494 kts | 80° |
| 2026-05-07 19:00 | 60.25016 | 13.68153 | 29064 ft | 497 kts | 80° |
| 2026-05-07 19:00 | 60.25289 | 13.72827 | 29291 ft | 499 kts | 80° |
| 2026-05-07 19:00 | 60.25692 | 13.79796 | 29607 ft | 502 kts | 80° |
| 2026-05-07 19:01 | 60.26093 | 13.86797 | 29910 ft | 505 kts | 80° |
| 2026-05-07 19:01 | 60.26493 | 13.93836 | 30221 ft | 507 kts | 80° |
| 2026-05-07 19:01 | 60.26891 | 14.00920 | 30491 ft | 509 kts | 80° |
| 2026-05-07 19:01 | 60.27286 | 14.08021 | 30763 ft | 511 kts | 80° |
| 2026-05-07 19:02 | 60.27677 | 14.15129 | 31127 ft | 510 kts | 80° |
| 2026-05-07 19:02 | 60.28062 | 14.22201 | 31548 ft | 508 kts | 80° |
| 2026-05-07 19:02 | 60.28443 | 14.29273 | 31913 ft | 507 kts | 80° |
| 2026-05-07 19:02 | 60.28821 | 14.36335 | 32235 ft | 507 kts | 80° |
| 2026-05-07 19:03 | 60.29195 | 14.43402 | 32550 ft | 507 kts | 81° |
| 2026-05-07 19:03 | 60.29565 | 14.50464 | 32880 ft | 506 kts | 81° |
| 2026-05-07 19:03 | 60.29932 | 14.57527 | 33223 ft | 506 kts | 81° |
| 2026-05-07 19:03 | 60.30294 | 14.64580 | 33539 ft | 506 kts | 81° |
| 2026-05-07 19:04 | 60.30652 | 14.71632 | 33855 ft | 506 kts | 81° |
| 2026-05-07 19:04 | 60.31002 | 14.78595 | 34148 ft | 506 kts | 81° |
| 2026-05-07 19:04 | 60.31357 | 14.85729 | 34409 ft | 505 kts | 81° |
| 2026-05-07 19:04 | 60.31703 | 14.92784 | 34700 ft | 504 kts | 81° |
| 2026-05-07 19:05 | 60.32044 | 14.99799 | 35003 ft | 502 kts | 82° |
| 2026-05-07 19:05 | 60.32376 | 15.06711 | 35278 ft | 501 kts | 82° |
| 2026-05-07 19:05 | 60.32708 | 15.13697 | 35526 ft | 500 kts | 82° |
| 2026-05-07 19:05 | 60.33037 | 15.20679 | 35797 ft | 499 kts | 83° |
| 2026-05-07 19:06 | 60.33361 | 15.27651 | 36073 ft | 498 kts | 83° |
| 2026-05-07 19:06 | 60.33998 | 15.41581 | 36700 ft | 492 kts | 84° |
| 2026-05-07 19:06 | 60.34306 | 15.48441 | 36999 ft | 490 kts | 84° |
| 2026-05-07 19:07 | 60.34611 | 15.55308 | 37141 ft | 492 kts | 84° |
| 2026-05-07 19:07 | 60.34913 | 15.62203 | 37126 ft | 494 kts | 84° |
| 2026-05-07 19:07 | 60.35508 | 15.75999 | 37125 ft | 491 kts | 84° |
| 2026-05-07 19:08 | 60.36083 | 15.89705 | 37136 ft | 488 kts | 84° |
| 2026-05-07 19:08 | 60.36641 | 16.03325 | 37143 ft | 485 kts | 85° |
| 2026-05-07 19:09 | 60.37181 | 16.16839 | 37162 ft | 484 kts | 85° |
| 2026-05-07 19:09 | 60.37715 | 16.30546 | 37177 ft | 491 kts | 85° |
| 2026-05-07 19:10 | 60.38240 | 16.44391 | 37174 ft | 496 kts | 85° |
| 2026-05-07 19:10 | 60.38754 | 16.58350 | 37166 ft | 499 kts | 85° |
| 2026-05-07 19:11 | 60.39256 | 16.72384 | 37165 ft | 501 kts | 85° |
| 2026-05-07 19:11 | 60.39743 | 16.86438 | 37160 ft | 501 kts | 85° |
| 2026-05-07 19:12 | 60.40215 | 17.00476 | 37157 ft | 499 kts | 86° |
| 2026-05-07 19:12 | 60.40670 | 17.14427 | 37159 ft | 498 kts | 86° |
| 2026-05-07 19:13 | 60.41109 | 17.28362 | 37161 ft | 495 kts | 86° |
| 2026-05-07 19:13 | 60.41532 | 17.42246 | 37164 ft | 494 kts | 86° |
| 2026-05-07 19:14 | 60.41940 | 17.56104 | 37174 ft | 492 kts | 86° |
| 2026-05-07 19:14 | 60.42330 | 17.69874 | 37169 ft | 491 kts | 86° |
| 2026-05-07 19:15 | 60.42708 | 17.83687 | 37174 ft | 492 kts | 86° |
| 2026-05-07 19:15 | 60.43072 | 17.97524 | 37174 ft | 493 kts | 86° |
| 2026-05-07 19:16 | 60.43423 | 18.11396 | 37180 ft | 494 kts | 87° |
| 2026-05-07 19:16 | 60.43759 | 18.25303 | 37181 ft | 496 kts | 87° |
| 2026-05-07 19:17 | 60.44083 | 18.39274 | 37182 ft | 497 kts | 87° |
| 2026-05-07 19:17 | 60.44393 | 18.53289 | 37181 ft | 499 kts | 87° |
| 2026-05-07 19:18 | 60.44689 | 18.67340 | 37182 ft | 500 kts | 87° |
| 2026-05-07 19:18 | 60.44970 | 18.81418 | 37184 ft | 501 kts | 87° |
| 2026-05-07 19:19 | 60.45237 | 18.95518 | 37184 ft | 501 kts | 87° |
| 2026-05-07 19:19 | 60.45488 | 19.09525 | 37184 ft | 501 kts | 87° |
| 2026-05-07 19:20 | 60.45725 | 19.23620 | 37184 ft | 500 kts | 88° |
| 2026-05-07 19:20 | 60.45947 | 19.37688 | 37184 ft | 499 kts | 88° |
| 2026-05-07 19:21 | 60.46155 | 19.51829 | 37018 ft | 500 kts | 88° |
| 2026-05-07 19:21 | 60.46252 | 19.58771 | 36748 ft | 498 kts | 88° |
| 2026-05-07 19:21 | 60.46345 | 19.65755 | 36493 ft | 493 kts | 88° |
| 2026-05-07 19:22 | 60.46434 | 19.72652 | 36234 ft | 487 kts | 88° |
| 2026-05-07 19:22 | 60.46518 | 19.79487 | 35990 ft | 485 kts | 88° |
| 2026-05-07 19:22 | 60.46599 | 19.86313 | 35745 ft | 483 kts | 88° |
| 2026-05-07 19:22 | 60.46676 | 19.93087 | 35494 ft | 480 kts | 88° |
| 2026-05-07 19:23 | 60.46748 | 19.99810 | 35153 ft | 475 kts | 88° |
| 2026-05-07 19:23 | 60.46817 | 20.06480 | 34771 ft | 472 kts | 88° |
| 2026-05-07 19:23 | 60.46883 | 20.13131 | 34393 ft | 470 kts | 88° |
| 2026-05-07 19:23 | 60.46944 | 20.19727 | 33935 ft | 469 kts | 88° |
| 2026-05-07 19:24 | 60.47003 | 20.26331 | 33502 ft | 466 kts | 88° |
| 2026-05-07 19:24 | 60.47058 | 20.32869 | 33091 ft | 463 kts | 88° |
| 2026-05-07 19:24 | 60.47109 | 20.39392 | 32692 ft | 461 kts | 88° |
| 2026-05-07 19:24 | 60.47157 | 20.45861 | 32306 ft | 458 kts | 88° |
| 2026-05-07 19:25 | 60.47201 | 20.52291 | 31918 ft | 455 kts | 88° |
| 2026-05-07 19:25 | 60.47242 | 20.58668 | 31540 ft | 453 kts | 88° |
| 2026-05-07 19:25 | 60.47280 | 20.65049 | 31167 ft | 450 kts | 88° |
| 2026-05-07 19:25 | 60.47315 | 20.71370 | 30785 ft | 448 kts | 88° |
| 2026-05-07 19:26 | 60.47347 | 20.77681 | 30413 ft | 446 kts | 88° |
| 2026-05-07 19:26 | 60.47375 | 20.83957 | 29989 ft | 445 kts | 88° |
| 2026-05-07 19:26 | 60.47400 | 20.90211 | 29563 ft | 442 kts | 88° |
| 2026-05-07 19:26 | 60.47423 | 20.96428 | 29150 ft | 439 kts | 89° |
| 2026-05-07 19:27 | 60.47442 | 21.02601 | 28747 ft | 436 kts | 89° |
| 2026-05-07 19:27 | 60.47459 | 21.08730 | 28361 ft | 433 kts | 89° |
| 2026-05-07 19:27 | 60.47472 | 21.14813 | 27974 ft | 431 kts | 89° |
| 2026-05-07 19:27 | 60.47483 | 21.20859 | 27595 ft | 428 kts | 89° |
| 2026-05-07 19:28 | 60.47493 | 21.26871 | 27220 ft | 425 kts | 89° |
| 2026-05-07 19:28 | 60.47499 | 21.32855 | 26842 ft | 423 kts | 89° |
| 2026-05-07 19:28 | 60.47499 | 21.38802 | 26433 ft | 422 kts | 89° |
| 2026-05-07 19:28 | 60.47473 | 21.44761 | 25937 ft | 424 kts | 90° |
| 2026-05-07 19:29 | 60.47429 | 21.50727 | 25552 ft | 422 kts | 90° |
| 2026-05-07 19:29 | 60.47382 | 21.56471 | 25187 ft | 420 kts | 90° |
| 2026-05-07 19:29 | 60.47332 | 21.62368 | 24854 ft | 417 kts | 90° |
| 2026-05-07 19:29 | 60.47281 | 21.68233 | 24502 ft | 415 kts | 90° |
| 2026-05-07 19:30 | 60.47230 | 21.74068 | 24142 ft | 413 kts | 90° |
| 2026-05-07 19:30 | 60.47178 | 21.79892 | 23756 ft | 413 kts | 90° |
| 2026-05-07 19:30 | 60.47125 | 21.85709 | 23333 ft | 411 kts | 90° |
| 2026-05-07 19:30 | 60.47069 | 21.91495 | 22938 ft | 409 kts | 90° |
| 2026-05-07 19:31 | 60.47011 | 21.97240 | 22555 ft | 407 kts | 90° |
| 2026-05-07 19:31 | 60.46951 | 22.02956 | 22180 ft | 404 kts | 90° |
| 2026-05-07 19:31 | 60.46890 | 22.08625 | 21819 ft | 401 kts | 90° |
| 2026-05-07 19:31 | 60.46826 | 22.14264 | 21459 ft | 399 kts | 90° |
| 2026-05-07 19:32 | 60.46760 | 22.19861 | 21101 ft | 397 kts | 90° |
| 2026-05-07 19:32 | 60.46692 | 22.25437 | 20748 ft | 394 kts | 90° |
| 2026-05-07 19:32 | 60.46623 | 22.30980 | 20392 ft | 392 kts | 90° |
| 2026-05-07 19:32 | 60.46553 | 22.36487 | 20040 ft | 390 kts | 90° |
| 2026-05-07 19:33 | 60.46480 | 22.41965 | 19691 ft | 388 kts | 90° |
| 2026-05-07 19:33 | 60.46404 | 22.47426 | 19341 ft | 386 kts | 90° |
| 2026-05-07 19:33 | 60.46329 | 22.52842 | 19044 ft | 383 kts | 90° |
| 2026-05-07 19:33 | 60.46254 | 22.58219 | 18717 ft | 381 kts | 90° |
| 2026-05-07 19:34 | 60.46178 | 22.63564 | 18370 ft | 379 kts | 90° |
| 2026-05-07 19:34 | 60.46101 | 22.68885 | 17975 ft | 377 kts | 90° |
| 2026-05-07 19:34 | 60.46023 | 22.74177 | 17614 ft | 375 kts | 90° |
| 2026-05-07 19:34 | 60.45942 | 22.79438 | 17255 ft | 372 kts | 90° |
| 2026-05-07 19:35 | 60.45861 | 22.84664 | 16902 ft | 370 kts | 90° |
| 2026-05-07 19:35 | 60.45777 | 22.89862 | 16554 ft | 367 kts | 90° |
| 2026-05-07 19:35 | 60.45693 | 22.95013 | 16218 ft | 365 kts | 90° |
| 2026-05-07 19:35 | 60.45607 | 23.00126 | 15877 ft | 362 kts | 90° |
| 2026-05-07 19:36 | 60.45522 | 23.05142 | 15540 ft | 360 kts | 90° |
| 2026-05-07 19:36 | 60.45434 | 23.10191 | 15217 ft | 358 kts | 90° |
| 2026-05-07 19:36 | 60.45344 | 23.15213 | 14887 ft | 356 kts | 90° |
| 2026-05-07 19:36 | 60.45251 | 23.20205 | 14580 ft | 353 kts | 91° |
| 2026-05-07 19:37 | 60.45156 | 23.25136 | 14275 ft | 350 kts | 91° |
| 2026-05-07 19:37 | 60.45058 | 23.30054 | 13955 ft | 348 kts | 91° |
| 2026-05-07 19:37 | 60.44960 | 23.34937 | 13592 ft | 346 kts | 91° |
| 2026-05-07 19:37 | 60.44861 | 23.39781 | 13248 ft | 343 kts | 91° |
| 2026-05-07 19:38 | 60.44762 | 23.44601 | 12902 ft | 341 kts | 91° |
| 2026-05-07 19:38 | 60.44707 | 23.49345 | 12732 ft | 330 kts | 88° |
| 2026-05-07 19:38 | 60.44745 | 23.53911 | 12526 ft | 319 kts | 86° |
| 2026-05-07 19:38 | 60.44810 | 23.58364 | 12165 ft | 315 kts | 86° |
| 2026-05-07 19:39 | 60.44876 | 23.62785 | 11763 ft | 312 kts | 86° |
| 2026-05-07 19:39 | 60.44937 | 23.67126 | 11408 ft | 307 kts | 86° |
| 2026-05-07 19:39 | 60.44991 | 23.71418 | 11048 ft | 302 kts | 87° |
| 2026-05-07 19:39 | 60.45023 | 23.74270 | 10826 ft | 298 kts | 87° |
| 2026-05-07 19:40 | 60.45081 | 23.79796 | 10333 ft | 294 kts | 87° |
| 2026-05-07 19:40 | 60.45121 | 23.83872 | 10147 ft | 283 kts | 87° |
| 2026-05-07 19:40 | 60.45155 | 23.87751 | 10064 ft | 269 kts | 87° |
| 2026-05-07 19:40 | 60.45190 | 23.91606 | 9272 ft | 282 kts | 88° |
| 2026-05-07 19:41 | 60.45225 | 23.95641 | 8641 ft | 288 kts | 88° |
| 2026-05-07 19:41 | 60.45258 | 23.99690 | 8189 ft | 287 kts | 88° |
| 2026-05-07 19:41 | 60.45288 | 24.03717 | 7785 ft | 285 kts | 88° |
| 2026-05-07 19:41 | 60.45318 | 24.07740 | 7453 ft | 285 kts | 88° |
| 2026-05-07 19:42 | 60.45346 | 24.11746 | 7115 ft | 285 kts | 88° |
| 2026-05-07 19:42 | 60.45364 | 24.14447 | 6890 ft | 282 kts | 89° |
| 2026-05-07 19:42 | 60.45388 | 24.18316 | 6607 ft | 275 kts | 89° |
| 2026-05-07 19:42 | 60.45412 | 24.22190 | 6345 ft | 268 kts | 89° |
| 2026-05-07 19:43 | 60.45433 | 24.25917 | 6099 ft | 260 kts | 88° |
| 2026-05-07 19:43 | 60.45453 | 24.29485 | 5871 ft | 254 kts | 88° |
| 2026-05-07 19:43 | 60.45470 | 24.32695 | 5661 ft | 249 kts | 88° |
| 2026-05-07 19:43 | 60.45488 | 24.36252 | 5430 ft | 248 kts | 88° |
| 2026-05-07 19:44 | 60.45504 | 24.39745 | 5187 ft | 249 kts | 88° |
| 2026-05-07 19:44 | 60.45521 | 24.43249 | 4966 ft | 248 kts | 88° |
| 2026-05-07 19:44 | 60.45537 | 24.46767 | 4705 ft | 252 kts | 87° |
| 2026-05-07 19:44 | 60.45551 | 24.50310 | 4450 ft | 251 kts | 87° |
| 2026-05-07 19:45 | 60.45564 | 24.53835 | 4203 ft | 249 kts | 87° |
| 2026-05-07 19:45 | 60.45576 | 24.57261 | 4139 ft | 237 kts | 87° |
| 2026-05-07 19:45 | 60.45585 | 24.60498 | 4055 ft | 223 kts | 86° |
| 2026-05-07 19:45 | 60.45594 | 24.63543 | 3948 ft | 209 kts | 86° |
| 2026-05-07 19:46 | 60.45602 | 24.66397 | 3828 ft | 197 kts | 86° |
| 2026-05-07 19:46 | 60.45611 | 24.69112 | 3729 ft | 191 kts | 86° |
| 2026-05-07 19:46 | 60.45618 | 24.71768 | 3579 ft | 186 kts | 85° |
| 2026-05-07 19:46 | 60.45623 | 24.74363 | 3404 ft | 182 kts | 85° |
| 2026-05-07 19:47 | 60.45628 | 24.76917 | 3217 ft | 181 kts | 85° |
| 2026-05-07 19:47 | 60.45633 | 24.79472 | 3024 ft | 181 kts | 85° |
| 2026-05-07 19:47 | 60.45506 | 24.82008 | 2805 ft | 187 kts | 110° |
| 2026-05-07 19:47 | 60.44635 | 24.83888 | 2685 ft | 189 kts | 144° |
| 2026-05-07 19:48 | 60.43519 | 24.85395 | 2558 ft | 192 kts | 144° |
| 2026-05-07 19:48 | 60.42361 | 24.86845 | 2277 ft | 195 kts | 150° |
| 2026-05-07 19:48 | 60.41206 | 24.88067 | 2044 ft | 185 kts | 152° |
| 2026-05-07 19:48 | 60.40104 | 24.89190 | 1795 ft | 171 kts | 152° |
| 2026-05-07 19:49 | 60.39065 | 24.90254 | 1555 ft | 165 kts | 152° |
| 2026-05-07 19:49 | 60.38043 | 24.91303 | 1320 ft | 163 kts | 153° |
| 2026-05-07 19:49 | 60.37103 | 24.92262 | 1097 ft | 159 kts | 154° |
| 2026-05-07 19:49 | 60.36134 | 24.93254 | 879 ft | 153 kts | 153° |
| 2026-05-07 19:50 | 60.35194 | 24.94243 | 676 ft | 151 kts | 155° |
| 2026-05-07 19:50 | 60.34264 | 24.95180 | 462 ft | 148 kts | 154° |
| 2026-05-07 19:50 | 60.33348 | 24.96138 | 247 ft | 148 kts | 155° |
| 2026-05-07 19:50 | 60.32544 | 24.96941 | 172 ft | 133 kts | 153° |
| 2026-05-07 19:51 | 60.31908 | 24.97596 | 152 ft | 96 kts | 154° |
| 2026-05-07 19:51 | 60.31528 | 24.97983 | 152 ft | 26 kts | 155° |
| 2026-05-07 19:51 | 60.31413 | 24.97887 | 154 ft | 15 kts | 242° |
| 2026-05-07 19:51 | 60.31407 | 24.97853 | 154 ft | 0 kts | 251° |
| 2026-05-07 19:52 | 60.31405 | 24.97843 | 155 ft | 2 kts | 251° |
| 2026-05-07 19:52 | 60.31402 | 24.97824 | 155 ft | 0 kts | 251° |
| 2026-05-07 19:53 | 60.31401 | 24.97814 | 155 ft | 4 kts | 255° |
| 2026-05-07 19:53 | 60.31441 | 24.97737 | 155 ft | 12 kts | 332° |
| 2026-05-07 19:53 | 60.31521 | 24.97658 | 155 ft | 13 kts | 334° |
| 2026-05-07 19:53 | 60.31598 | 24.97577 | 156 ft | 12 kts | 332° |
| 2026-05-07 19:54 | 60.31676 | 24.97498 | 158 ft | 14 kts | 334° |
| 2026-05-07 19:54 | 60.31770 | 24.97401 | 159 ft | 16 kts | 332° |
| 2026-05-07 19:54 | 60.31867 | 24.97300 | 161 ft | 16 kts | 333° |
| 2026-05-07 19:54 | 60.31968 | 24.97197 | 163 ft | 16 kts | 332° |
| 2026-05-07 19:55 | 60.32067 | 24.97097 | 165 ft | 16 kts | 335° |
| 2026-05-07 19:55 | 60.32140 | 24.96963 | 165 ft | 15 kts | 264° |
| 2026-05-07 19:55 | 60.32074 | 24.96809 | 166 ft | 14 kts | 228° |
| 2026-05-07 19:55 | 60.31999 | 24.96732 | 166 ft | 7 kts | 171° |
| 2026-05-07 19:56 | 60.31969 | 24.96739 | 166 ft | 3 kts | 174° |